createdAt,value
2019-01-11T00:02:34.275Z,1.27
2019-01-11T00:05:15.489Z,1.73
2019-01-11T00:07:56.212Z,1.93
2019-01-11T00:10:37.135Z,1.80
2019-01-11T00:13:17.856Z,1.80
2019-01-11T00:15:58.836Z,1.40
2019-01-11T00:18:38.721Z,1.40
2019-01-11T00:21:19.931Z,1.40
2019-01-11T00:24:01.048Z,1.07
2019-01-11T00:26:41.940Z,1.33
2019-01-11T00:29:22.701Z,1.00
2019-01-11T00:32:03.504Z,1.30
2019-01-11T00:34:44.286Z,1.33
2019-01-11T00:37:25.388Z,1.40
2019-01-11T00:40:06.139Z,1.20
2019-01-11T00:42:47.066Z,1.40
2019-01-11T00:45:27.909Z,1.00
2019-01-11T00:48:08.737Z,1.10
2019-01-11T00:50:49.469Z,1.10
2019-01-11T00:53:30.050Z,1.10
2019-01-11T00:56:10.819Z,1.10
2019-01-11T00:58:51.694Z,0.90
2019-01-11T01:01:32.654Z,1.40
2019-01-11T01:04:13.230Z,1.23
2019-01-11T01:06:54.509Z,0.97
2019-01-11T01:09:35.079Z,1.20
2019-01-11T01:12:16.278Z,1.00
2019-01-11T01:14:56.824Z,1.07
2019-01-11T01:17:37.829Z,1.23
2019-01-11T01:20:17.370Z,0.83
2019-01-11T01:22:58.602Z,1.40
2019-01-11T01:25:28.088Z,1.23
2019-01-11T01:27:57.231Z,1.43
2019-01-11T01:30:26.308Z,1.23
2019-01-11T01:32:55.463Z,1.40
2019-01-11T01:35:24.598Z,1.17
2019-01-11T01:37:53.744Z,1.50
2019-01-11T01:40:22.892Z,1.60
2019-01-11T01:42:51.989Z,1.30
2019-01-11T01:45:21.095Z,1.63
2019-01-11T01:47:50.228Z,1.50
2019-01-11T01:50:19.339Z,1.70
2019-01-11T01:52:48.400Z,1.37
2019-01-11T01:55:19.679Z,1.60
2019-01-11T01:57:48.923Z,1.27
2019-01-11T02:00:18.969Z,1.60
2019-01-11T02:02:48.087Z,1.10
2019-01-11T02:05:17.602Z,1.17
2019-01-11T02:07:46.795Z,1.67
2019-01-11T02:10:15.924Z,1.40
2019-01-11T02:12:45.101Z,1.10
2019-01-11T02:15:14.299Z,1.30
2019-01-11T02:17:43.452Z,1.10
2019-01-11T02:20:15.530Z,1.30
2019-01-11T02:22:44.851Z,1.00
2019-01-11T02:25:14.599Z,1.07
2019-01-11T02:27:43.704Z,1.27
2019-01-11T02:30:16.121Z,1.20
2019-01-11T02:32:52.018Z,1.00
2019-01-11T02:35:15.971Z,1.13
2019-01-11T02:37:45.163Z,1.50
2019-01-11T02:40:14.456Z,1.30
2019-01-11T02:42:43.530Z,1.13
2019-01-11T02:45:15.098Z,1.30
2019-01-11T02:47:44.154Z,1.20
2019-01-11T02:50:13.543Z,1.10
2019-01-11T02:52:42.899Z,1.20
2019-01-11T02:55:12.010Z,1.23
2019-01-11T02:57:41.066Z,1.60
2019-01-11T03:00:16.417Z,1.23
2019-01-11T03:02:45.795Z,1.50
2019-01-11T03:05:15.303Z,1.63
2019-01-11T03:07:44.663Z,1.47
2019-01-11T03:10:19.934Z,1.37
2019-01-11T03:12:49.039Z,1.57
2019-01-11T03:15:19.063Z,1.67
2019-01-11T03:17:48.238Z,1.63
2019-01-11T03:20:18.793Z,1.70
2019-01-11T03:22:49.934Z,1.50
2019-01-11T03:25:26.122Z,1.60
2019-01-11T03:27:55.801Z,1.53
2019-01-11T03:30:26.976Z,1.63
2019-01-11T03:32:56.167Z,1.40
2019-01-11T03:35:32.247Z,1.73
2019-01-11T03:38:01.419Z,1.40
2019-01-11T03:40:37.523Z,1.60
2019-01-11T03:43:06.683Z,1.60
2019-01-11T03:45:35.914Z,1.40
2019-01-11T03:48:08.202Z,1.73
2019-01-11T03:50:38.444Z,1.97
2019-01-11T03:53:12.792Z,1.90
2019-01-11T03:55:43.983Z,1.73
2019-01-11T03:58:14.246Z,2.20
2019-01-11T04:00:43.399Z,1.67
2019-01-11T04:03:12.631Z,1.90
2019-01-11T04:05:41.910Z,2.13
2019-01-11T04:08:14.238Z,1.73
2019-01-11T04:10:43.446Z,2.00
2019-01-11T04:13:14.733Z,2.00
2019-01-11T04:18:34.794Z,2.23
2019-01-11T04:21:03.978Z,2.17
2019-01-11T04:23:33.129Z,2.10
2019-01-11T04:26:08.091Z,1.93
2019-01-11T04:28:38.252Z,2.10
2019-01-11T04:31:07.462Z,1.97
2019-01-11T04:33:36.679Z,2.00
2019-01-11T04:36:11.795Z,2.03
2019-01-11T04:38:42.931Z,1.80
2019-01-11T04:41:12.134Z,2.30
2019-01-11T04:43:41.447Z,1.80
2019-01-11T04:46:10.755Z,2.00
2019-01-11T04:48:40.937Z,2.40
2019-01-11T04:51:10.172Z,2.20
2019-01-11T04:53:39.361Z,2.00
2019-01-11T04:56:09.567Z,2.43
2019-01-11T04:58:39.731Z,1.97
2019-01-11T05:01:09.065Z,2.60
2019-01-11T05:03:57.263Z,2.60
2019-01-11T05:06:38.330Z,2.50
2019-01-11T05:09:19.151Z,2.70
2019-01-11T05:12:00.133Z,2.60
2019-01-11T05:14:40.871Z,2.53
2019-01-11T05:17:21.706Z,2.70
2019-01-11T05:20:02.385Z,2.17
2019-01-11T05:22:43.445Z,2.60
2019-01-11T05:28:13.314Z,2.80
2019-01-11T05:30:55.826Z,2.60
2019-01-11T05:33:36.385Z,3.00
2019-01-11T05:36:17.192Z,2.53
2019-01-11T05:38:57.861Z,2.87
2019-01-11T05:41:38.653Z,3.27
2019-01-11T05:44:19.243Z,2.90
2019-01-11T05:46:59.659Z,3.83
2019-01-11T05:49:39.481Z,2.93
2019-01-11T05:52:20.706Z,3.13
2019-01-11T05:55:01.265Z,3.33
2019-01-11T06:00:49.063Z,3.70
2019-01-11T06:03:28.679Z,3.17
2019-01-11T06:06:09.878Z,3.50
2019-01-11T06:08:50.660Z,3.47
2019-01-11T06:11:31.886Z,4.10
2019-01-11T06:14:12.881Z,3.90
2019-01-11T06:16:54.133Z,4.43
2019-01-11T06:19:35.059Z,5.00
2019-01-11T06:22:15.565Z,4.00
2019-01-11T06:24:56.359Z,5.67
2019-01-11T06:27:38.284Z,5.67
2019-01-11T06:30:19.398Z,5.40
2019-01-11T06:33:00.390Z,4.20
2019-01-11T06:38:25.496Z,4.53
2019-01-11T06:41:06.479Z,5.00
2019-01-11T06:43:48.959Z,4.70
2019-01-11T06:46:29.632Z,5.33
2019-01-11T06:49:10.726Z,5.90
2019-01-11T06:51:52.647Z,7.10
2019-01-11T06:54:33.948Z,6.27
2019-01-11T06:57:13.461Z,4.53
2019-01-11T06:59:54.915Z,5.30
2019-01-11T07:02:35.424Z,4.90
2019-01-11T07:07:55.135Z,4.50
2019-01-11T07:10:35.655Z,5.50
2019-01-11T07:13:16.388Z,4.90
2019-01-11T07:15:56.208Z,4.73
2019-01-11T07:18:37.540Z,4.73
2019-01-11T07:21:18.835Z,4.70
2019-01-11T07:23:59.847Z,4.67
2019-01-11T07:26:41.046Z,4.93
2019-01-11T07:29:20.747Z,4.63
2019-01-11T07:32:02.199Z,5.10
2019-01-11T07:34:43.335Z,5.43
2019-01-11T07:37:24.328Z,5.07
2019-01-11T07:40:05.303Z,5.60
2019-01-11T07:42:46.066Z,5.00
2019-01-11T07:45:27.525Z,5.57
2019-01-11T07:48:08.595Z,6.00
2019-01-11T07:50:49.729Z,4.33
2019-01-11T07:53:30.730Z,5.10
2019-01-11T07:56:11.533Z,4.90
2019-01-11T07:58:40.694Z,4.90
2019-01-11T08:04:30.658Z,4.00
2019-01-11T08:07:11.364Z,4.53
2019-01-11T08:09:52.339Z,4.70
2019-01-11T08:12:32.653Z,5.03
2019-01-11T08:15:13.389Z,4.33
2019-01-11T08:17:53.996Z,4.63
2019-01-11T08:20:34.950Z,4.93
2019-01-11T08:23:15.712Z,5.00
2019-01-11T08:25:56.633Z,5.67
2019-01-11T08:28:37.472Z,4.73
2019-01-11T08:31:18.492Z,5.17
2019-01-11T08:33:59.870Z,4.83
2019-01-11T08:36:40.299Z,5.43
2019-01-11T08:39:21.233Z,6.70
2019-01-11T08:42:02.040Z,5.90
2019-01-11T08:44:42.938Z,5.17
2019-01-11T08:47:23.907Z,4.93
2019-01-11T08:50:04.711Z,5.20
2019-01-11T08:52:45.525Z,4.80
2019-01-11T08:55:28.539Z,4.50
2019-01-11T08:58:09.312Z,4.63
2019-01-11T09:00:50.143Z,5.13
2019-01-11T09:03:31.603Z,5.87
2019-01-11T09:06:12.339Z,5.60
2019-01-11T09:08:41.595Z,5.50
2019-01-11T09:11:29.772Z,6.13
2019-01-11T09:14:36.963Z,6.37
2019-01-11T09:19:56.272Z,6.20
2019-01-11T09:25:15.742Z,8.23
2019-01-11T09:27:56.843Z,6.13
2019-01-11T09:30:37.446Z,7.67
2019-01-11T09:33:20.628Z,7.73
2019-01-11T09:36:01.388Z,6.60
2019-01-11T09:38:42.044Z,6.77
2019-01-11T09:41:22.756Z,6.37
2019-01-11T09:44:03.636Z,6.57
2019-01-11T09:46:44.359Z,8.37
2019-01-11T09:49:25.242Z,7.37
2019-01-11T09:52:05.767Z,6.50
2019-01-11T09:54:46.711Z,7.33
2019-01-11T09:57:27.364Z,6.57
2019-01-11T10:00:08.048Z,7.37
2019-01-11T10:05:53.240Z,8.40
2019-01-11T10:08:34.572Z,9.17
2019-01-11T10:11:15.755Z,7.73
2019-01-11T10:13:56.748Z,7.93
2019-01-11T10:16:38.019Z,8.60
2019-01-11T10:19:18.727Z,7.67
2019-01-11T10:21:59.627Z,6.60
2019-01-11T10:24:40.444Z,8.00
2019-01-11T10:27:21.631Z,8.57
2019-01-11T10:30:02.211Z,9.30
2019-01-11T10:35:21.727Z,9.70
2019-01-11T10:40:50.350Z,7.93
2019-01-11T10:43:29.951Z,8.70
2019-01-11T10:46:36.258Z,7.77
2019-01-11T10:49:17.078Z,7.93
2019-01-11T10:51:57.737Z,8.50
2019-01-11T10:54:43.047Z,9.07
2019-01-11T10:57:24.313Z,10.20
2019-01-11T10:59:58.849Z,8.70
2019-01-11T11:02:47.002Z,9.53
2019-01-11T11:05:27.725Z,8.63
2019-01-11T11:08:09.301Z,10.60
2019-01-11T11:10:50.663Z,11.13
2019-01-11T11:16:10.079Z,9.27
2019-01-11T11:18:39.233Z,11.23
2019-01-11T11:21:20.466Z,10.77
2019-01-11T11:26:40.099Z,9.40
2019-01-11T11:29:21.008Z,9.53
2019-01-11T11:31:50.196Z,10.00
2019-01-11T11:34:26.672Z,10.03
2019-01-11T11:40:11.760Z,10.57
2019-01-11T11:42:52.155Z,9.50
2019-01-11T11:45:32.626Z,9.77
2019-01-11T11:48:12.985Z,9.27
2019-01-11T11:50:53.677Z,11.03
2019-01-11T11:53:34.181Z,10.73
2019-01-11T11:56:14.833Z,11.30
2019-01-11T11:58:54.445Z,9.93
2019-01-11T12:01:24.252Z,9.83
2019-01-11T12:04:12.424Z,12.73
2019-01-11T12:06:53.541Z,10.80
2019-01-11T12:09:33.991Z,9.50
2019-01-11T12:12:03.112Z,11.20
2019-01-11T12:14:32.228Z,10.60
2019-01-11T12:17:07.267Z,11.07
2019-01-11T12:19:57.103Z,10.37
2019-01-11T12:22:26.922Z,11.37
2019-01-11T12:24:57.867Z,11.20
2019-01-11T12:27:28.699Z,10.10
2019-01-11T12:30:17.111Z,9.67
2019-01-11T12:32:58.188Z,10.20
2019-01-11T12:38:17.723Z,10.87
2019-01-11T12:43:37.352Z,11.77
2019-01-11T12:46:18.237Z,11.80
2019-01-11T12:48:47.316Z,11.83
2019-01-11T12:51:35.899Z,11.43
2019-01-11T12:54:05.077Z,10.37
2019-01-11T12:56:34.171Z,10.37
2019-01-11T12:59:15.244Z,11.97
2019-01-11T13:01:44.385Z,11.40
2019-01-11T13:04:14.529Z,11.20
2019-01-11T13:06:46.666Z,11.23
2019-01-11T13:09:21.924Z,11.47
2019-01-11T13:11:52.485Z,10.77
2019-01-11T13:14:21.602Z,10.80
2019-01-11T13:16:51.509Z,11.30
2019-01-11T13:19:20.624Z,11.27
2019-01-11T13:21:49.894Z,10.30
2019-01-11T13:24:38.487Z,9.77
2019-01-11T13:27:19.040Z,10.10
2019-01-11T13:29:59.615Z,9.63
2019-01-11T13:32:33.897Z,9.70
2019-01-11T13:35:22.153Z,9.83
2019-01-11T13:37:51.424Z,9.20
2019-01-11T13:40:22.591Z,9.70
2019-01-11T13:42:51.832Z,11.57
2019-01-11T13:45:22.422Z,11.00
2019-01-11T13:47:52.403Z,10.07
2019-01-11T13:50:38.087Z,9.30
2019-01-11T13:53:10.262Z,10.13
2019-01-11T13:55:42.132Z,9.00
2019-01-11T13:58:13.439Z,8.37
2019-01-11T14:00:44.661Z,8.10
2019-01-11T14:03:13.905Z,9.37
2019-01-11T14:06:02.251Z,8.03
2019-01-11T14:08:31.419Z,7.90
2019-01-11T14:11:00.511Z,8.70
2019-01-11T14:13:29.700Z,7.97
2019-01-11T14:16:17.957Z,8.33
2019-01-11T14:19:06.125Z,8.70
2019-01-11T14:21:47.103Z,7.90
2019-01-11T14:24:28.533Z,7.50
2019-01-11T14:27:09.642Z,10.07
2019-01-11T14:29:50.519Z,7.87
2019-01-11T14:32:31.224Z,7.37
2019-01-11T14:35:11.830Z,8.03
2019-01-11T14:37:52.588Z,7.47
2019-01-11T14:40:33.304Z,7.77
2019-01-11T14:43:14.055Z,7.03
2019-01-11T14:45:54.541Z,7.30
2019-01-11T14:48:35.387Z,8.97
2019-01-11T14:53:55.029Z,6.83
2019-01-11T14:56:35.463Z,7.27
2019-01-11T14:59:15.271Z,7.57
2019-01-11T15:01:56.187Z,7.30
2019-01-11T15:04:36.916Z,7.07
2019-01-11T15:07:17.718Z,6.77
2019-01-11T15:09:58.477Z,8.10
2019-01-11T15:12:39.400Z,8.50
2019-01-11T15:15:20.549Z,7.77
2019-01-11T15:18:01.431Z,9.37
2019-01-11T15:20:42.467Z,8.77
2019-01-11T15:23:23.421Z,9.30
2019-01-11T15:26:04.576Z,8.80
2019-01-11T15:28:45.729Z,8.30
2019-01-11T15:31:26.320Z,8.23
2019-01-11T15:34:06.928Z,7.90
2019-01-11T15:36:36.311Z,9.10
2019-01-11T15:39:08.603Z,8.47
2019-01-11T15:41:37.684Z,6.40
2019-01-11T15:44:06.870Z,6.70
2019-01-11T15:46:36.038Z,7.00
2019-01-11T15:49:05.188Z,6.37
2019-01-11T15:51:34.251Z,6.63
2019-01-11T15:54:04.171Z,6.13
2019-01-11T15:56:33.362Z,8.60
2019-01-11T15:59:04.048Z,7.43
2019-01-11T16:01:33.285Z,7.53
2019-01-11T16:04:09.430Z,6.73
2019-01-11T16:06:40.686Z,6.63
2019-01-11T16:09:26.992Z,7.83
2019-01-11T16:12:04.042Z,6.27
2019-01-11T16:14:58.276Z,6.90
2019-01-11T16:17:28.965Z,6.00
2019-01-11T16:19:58.256Z,7.50
2019-01-11T16:22:27.517Z,7.00
2019-01-11T16:24:58.460Z,6.33
2019-01-11T16:27:28.800Z,5.37
2019-01-11T16:29:58.968Z,5.50
2019-01-11T16:32:28.146Z,6.73
2019-01-11T16:34:59.279Z,5.70
2019-01-11T16:37:47.565Z,6.67
2019-01-11T16:40:31.979Z,6.80
2019-01-11T16:43:11.559Z,7.73
2019-01-11T16:45:52.814Z,6.50
2019-01-11T16:48:33.924Z,6.63
2019-01-11T16:51:15.390Z,5.97
2019-01-11T16:53:56.377Z,7.47
2019-01-11T16:56:25.573Z,6.80
2019-01-11T16:59:13.772Z,6.60
2019-01-11T17:01:55.190Z,6.43
2019-01-11T17:04:36.406Z,6.80
2019-01-11T17:07:17.607Z,6.80
2019-01-11T17:09:58.331Z,6.27
2019-01-11T17:12:41.936Z,5.80
2019-01-11T17:15:22.483Z,6.03
2019-01-11T17:18:03.954Z,6.77
2019-01-11T17:20:33.063Z,6.80
2019-01-11T17:23:02.127Z,7.23
2019-01-11T17:25:50.320Z,6.03
2019-01-11T17:28:38.532Z,6.40
2019-01-11T17:31:19.582Z,7.00
2019-01-11T17:34:00.620Z,7.60
2019-01-11T17:36:41.139Z,7.60
2019-01-11T17:39:22.475Z,6.90
2019-01-11T17:42:03.196Z,7.63
2019-01-11T17:44:43.613Z,7.97
2019-01-11T17:47:24.739Z,7.80
2019-01-11T17:50:05.223Z,5.93
2019-01-11T17:52:46.231Z,7.00
2019-01-11T17:55:26.701Z,7.50
2019-01-11T17:58:07.412Z,7.43
2019-01-11T18:00:48.274Z,6.63
2019-01-11T18:03:28.709Z,6.43
2019-01-11T18:06:09.662Z,7.63
2019-01-11T18:08:50.216Z,7.10
2019-01-11T18:11:31.533Z,7.90
2019-01-11T18:16:51.308Z,7.57
2019-01-11T18:19:32.632Z,8.40
2019-01-11T18:22:13.584Z,8.43
2019-01-11T18:24:54.459Z,8.53
2019-01-11T18:27:35.218Z,7.40
2019-01-11T18:30:16.117Z,8.10
2019-01-11T18:32:56.876Z,8.50
2019-01-11T18:35:37.953Z,6.60
2019-01-11T18:38:18.704Z,7.53
2019-01-11T18:40:59.473Z,7.10
2019-01-11T18:46:25.287Z,7.03
2019-01-11T18:49:06.513Z,7.23
2019-01-11T18:51:47.493Z,7.20
2019-01-11T18:54:28.794Z,8.57
2019-01-11T18:57:09.470Z,9.60
2019-01-11T18:59:50.696Z,8.90
2019-01-11T19:02:31.758Z,9.50
2019-01-11T19:05:11.604Z,8.50
2019-01-11T19:07:45.977Z,8.03
2019-01-11T19:10:13.196Z,8.30
2019-01-11T19:12:59.379Z,7.90
2019-01-11T19:15:29.829Z,7.73
2019-01-11T19:18:00.976Z,9.43
2019-01-11T19:20:31.206Z,7.93
2019-01-11T19:23:01.448Z,8.60
2019-01-11T19:25:32.659Z,8.23
2019-01-11T19:28:20.847Z,11.57
2019-01-11T19:31:09.038Z,10.33
2019-01-11T19:33:49.822Z,9.50
2019-01-11T19:36:30.976Z,10.00
2019-01-11T19:41:50.587Z,8.27
2019-01-11T19:44:30.284Z,9.50
2019-01-11T19:46:59.521Z,10.13
2019-01-11T19:49:47.701Z,9.47
2019-01-11T19:52:35.888Z,8.53
2019-01-11T19:55:16.320Z,9.67
2019-01-11T19:57:56.789Z,8.70
2019-01-11T20:00:37.318Z,9.27
2019-01-11T20:03:17.985Z,7.97
2019-01-11T20:05:59.084Z,8.27
2019-01-11T20:08:39.832Z,7.07
2019-01-11T20:11:20.678Z,8.40
2019-01-11T20:14:01.629Z,8.60
2019-01-11T20:16:42.886Z,8.27
2019-01-11T20:19:23.398Z,7.70
2019-01-11T20:22:04.487Z,7.00
2019-01-11T20:24:45.095Z,8.33
2019-01-11T20:27:25.612Z,7.40
2019-01-11T20:32:45.458Z,7.53
2019-01-11T20:35:26.057Z,7.00
2019-01-11T20:38:07.288Z,7.37
2019-01-11T20:40:47.972Z,6.97
2019-01-11T20:43:28.739Z,7.10
2019-01-11T20:46:09.208Z,7.83
2019-01-11T20:48:49.824Z,7.17
2019-01-11T20:51:30.620Z,6.60
2019-01-11T20:54:11.520Z,7.93
2019-01-11T20:56:52.543Z,7.77
2019-01-11T20:59:33.493Z,7.97
2019-01-11T21:02:14.245Z,5.53
2019-01-11T21:04:54.004Z,6.77
2019-01-11T21:07:34.967Z,5.90
2019-01-11T21:10:15.606Z,5.63
2019-01-11T21:12:56.239Z,5.93
2019-01-11T21:15:36.617Z,8.17
2019-01-11T21:18:17.888Z,5.67
2019-01-11T21:20:59.269Z,7.17
2019-01-11T21:23:40.136Z,7.47
2019-01-11T21:26:21.107Z,8.07
2019-01-11T21:29:02.482Z,7.57
2019-01-11T21:31:43.722Z,7.57
2019-01-11T21:34:26.687Z,7.60
2019-01-11T21:37:07.900Z,7.17
2019-01-11T21:39:37.099Z,9.47
2019-01-11T21:42:06.249Z,7.30
2019-01-11T21:44:35.439Z,7.67
2019-01-11T21:47:04.824Z,8.27
2019-01-11T21:49:33.967Z,7.37
2019-01-11T21:52:03.186Z,7.97
2019-01-11T21:54:32.311Z,9.17
2019-01-11T21:57:01.519Z,7.90
2019-01-11T21:59:30.615Z,8.07
2019-01-11T22:01:59.734Z,7.87
2019-01-11T22:04:28.803Z,9.13
2019-01-11T22:06:58.207Z,8.20
2019-01-11T22:09:27.379Z,7.50
2019-01-11T22:11:56.609Z,8.37
2019-01-11T22:14:25.711Z,7.70
2019-01-11T22:16:56.239Z,7.63
2019-01-11T22:19:26.828Z,8.07
2019-01-11T22:21:55.935Z,7.80
2019-01-11T22:24:25.167Z,6.77
2019-01-11T22:26:54.331Z,6.90
2019-01-11T22:29:23.771Z,7.70
2019-01-11T22:31:52.870Z,7.77
2019-01-11T22:34:21.930Z,7.17
2019-01-11T22:36:51.047Z,8.30
2019-01-11T22:39:20.135Z,7.27
2019-01-11T22:41:49.257Z,8.30
2019-01-11T22:44:18.317Z,7.17
2019-01-11T22:46:47.428Z,7.37
2019-01-11T22:49:16.511Z,6.60
2019-01-11T22:51:45.615Z,6.77
2019-01-11T22:54:14.711Z,7.90
2019-01-11T22:56:43.818Z,6.67
2019-01-11T22:59:13.111Z,7.97
2019-01-11T23:02:12.882Z,8.37
2019-01-11T23:04:42.024Z,8.50
2019-01-11T23:07:34.972Z,7.60
2019-01-11T23:10:17.599Z,8.77
2019-01-11T23:13:02.434Z,8.80
2019-01-11T23:15:36.764Z,7.40
2019-01-11T23:18:17.194Z,7.10
2019-01-11T23:20:48.550Z,7.07
2019-01-11T23:23:17.693Z,6.33
2019-01-11T23:25:46.767Z,7.90
2019-01-11T23:28:15.898Z,7.07
2019-01-11T23:30:46.590Z,7.80
2019-01-11T23:33:15.738Z,8.33
2019-01-11T23:35:44.910Z,7.70
2019-01-11T23:38:13.985Z,7.03
2019-01-11T23:40:43.378Z,6.97
2019-01-11T23:43:12.518Z,8.33
2019-01-11T23:45:41.587Z,7.57
2019-01-11T23:48:10.693Z,8.50
2019-01-11T23:50:39.779Z,8.50
2019-01-11T23:53:08.875Z,8.50
2019-01-11T23:55:37.956Z,9.23
2019-01-11T23:58:07.475Z,8.93
